sensor_id;sensor_type;location;lat;lon;timestamp;P1;durP1;ratioP1;P2;durP2;ratioP2
781;SDS011;374;52.568;13.402;2022-10-24T00:00:04;8.40;;;7.60;;
781;SDS011;374;52.568;13.402;2022-10-24T00:02:31;8.97;;;7.17;;
781;SDS011;374;52.568;13.402;2022-10-24T00:04:57;8.77;;;7.57;;
781;SDS011;374;52.568;13.402;2022-10-24T00:07:22;9.43;;;7.90;;
781;SDS011;374;52.568;13.402;2022-10-24T00:09:48;8.37;;;6.13;;
781;SDS011;374;52.568;13.402;2022-10-24T00:12:13;8.17;;;6.90;;
781;SDS011;374;52.568;13.402;2022-10-24T00:14:38;7.57;;;6.80;;
781;SDS011;374;52.568;13.402;2022-10-24T00:17:04;7.77;;;6.90;;
781;SDS011;374;52.568;13.402;2022-10-24T00:19:31;8.43;;;7.57;;
781;SDS011;374;52.568;13.402;2022-10-24T00:21:56;7.83;;;7.13;;
781;SDS011;374;52.568;13.402;2022-10-24T00:24:22;9.17;;;7.77;;
781;SDS011;374;52.568;13.402;2022-10-24T00:26:49;11.37;;;6.93;;
781;SDS011;374;52.568;13.402;2022-10-24T00:29:14;7.70;;;6.37;;
781;SDS011;374;52.568;13.402;2022-10-24T00:31:40;7.60;;;6.87;;
781;SDS011;374;52.568;13.402;2022-10-24T00:34:06;8.80;;;7.90;;
781;SDS011;374;52.568;13.402;2022-10-24T00:36:31;8.60;;;7.60;;
781;SDS011;374;52.568;13.402;2022-10-24T00:38:57;8.10;;;6.77;;
781;SDS011;374;52.568;13.402;2022-10-24T00:41:24;9.80;;;7.17;;
781;SDS011;374;52.568;13.402;2022-10-24T00:44:11;7.93;;;6.87;;
781;SDS011;374;52.568;13.402;2022-10-24T00:46:47;10.53;;;7.60;;
781;SDS011;374;52.568;13.402;2022-10-24T00:49:20;8.70;;;7.80;;
781;SDS011;374;52.568;13.402;2022-10-24T00:51:49;8.50;;;6.70;;
781;SDS011;374;52.568;13.402;2022-10-24T00:54:18;8.10;;;7.40;;
781;SDS011;374;52.568;13.402;2022-10-24T00:56:46;8.83;;;7.83;;
781;SDS011;374;52.568;13.402;2022-10-24T00:59:19;10.37;;;7.80;;
781;SDS011;374;52.568;13.402;2022-10-24T01:01:45;11.33;;;8.60;;
781;SDS011;374;52.568;13.402;2022-10-24T01:04:12;8.90;;;7.23;;
781;SDS011;374;52.568;13.402;2022-10-24T01:09:26;9.60;;;7.20;;
781;SDS011;374;52.568;13.402;2022-10-24T01:12:15;9.00;;;8.07;;
781;SDS011;374;52.568;13.402;2022-10-24T01:15:07;10.37;;;8.17;;
781;SDS011;374;52.568;13.402;2022-10-24T01:26:29;8.47;;;7.60;;
781;SDS011;374;52.568;13.402;2022-10-24T01:32:22;7.37;;;6.67;;
781;SDS011;374;52.568;13.402;2022-10-24T01:34:31;8.10;;;7.30;;
781;SDS011;374;52.568;13.402;2022-10-24T01:37:12;7.17;;;6.47;;
781;SDS011;374;52.568;13.402;2022-10-24T01:39:45;13.53;;;7.03;;
781;SDS011;374;52.568;13.402;2022-10-24T01:42:15;7.80;;;7.10;;
781;SDS011;374;52.568;13.402;2022-10-24T01:44:47;7.83;;;7.10;;
781;SDS011;374;52.568;13.402;2022-10-24T01:47:19;8.50;;;7.17;;
781;SDS011;374;52.568;13.402;2022-10-24T01:49:50;11.47;;;7.30;;
781;SDS011;374;52.568;13.402;2022-10-24T01:52:20;8.13;;;7.43;;
781;SDS011;374;52.568;13.402;2022-10-24T01:54:48;7.57;;;6.87;;
781;SDS011;374;52.568;13.402;2022-10-24T01:57:14;8.40;;;7.27;;
781;SDS011;374;52.568;13.402;2022-10-24T01:59:44;9.50;;;8.50;;
781;SDS011;374;52.568;13.402;2022-10-24T02:07:26;8.83;;;7.40;;
781;SDS011;374;52.568;13.402;2022-10-24T02:09:56;8.20;;;7.40;;
781;SDS011;374;52.568;13.402;2022-10-24T02:12:24;10.30;;;7.90;;
781;SDS011;374;52.568;13.402;2022-10-24T02:14:52;8.50;;;7.20;;
781;SDS011;374;52.568;13.402;2022-10-24T02:17:32;8.17;;;6.77;;
781;SDS011;374;52.568;13.402;2022-10-24T02:19:57;9.07;;;7.80;;
781;SDS011;374;52.568;13.402;2022-10-24T02:22:28;8.37;;;7.50;;
781;SDS011;374;52.568;13.402;2022-10-24T02:25:08;10.17;;;7.37;;
781;SDS011;374;52.568;13.402;2022-10-24T02:27:41;9.00;;;7.80;;
781;SDS011;374;52.568;13.402;2022-10-24T02:30:17;7.90;;;7.10;;
781;SDS011;374;52.568;13.402;2022-10-24T02:32:52;7.50;;;6.80;;
781;SDS011;374;52.568;13.402;2022-10-24T02:35:31;8.00;;;6.63;;
781;SDS011;374;52.568;13.402;2022-10-24T02:38:11;7.70;;;7.00;;
781;SDS011;374;52.568;13.402;2022-10-24T02:40:41;8.67;;;6.83;;
781;SDS011;374;52.568;13.402;2022-10-24T02:43:09;7.90;;;7.10;;
781;SDS011;374;52.568;13.402;2022-10-24T02:45:37;8.00;;;7.10;;
781;SDS011;374;52.568;13.402;2022-10-24T02:48:04;10.23;;;6.30;;
781;SDS011;374;52.568;13.402;2022-10-24T02:50:33;9.40;;;7.77;;
781;SDS011;374;52.568;13.402;2022-10-24T02:53:01;8.20;;;7.40;;
781;SDS011;374;52.568;13.402;2022-10-24T02:55:28;7.37;;;6.70;;
781;SDS011;374;52.568;13.402;2022-10-24T02:57:53;6.53;;;5.93;;
781;SDS011;374;52.568;13.402;2022-10-24T03:00:19;9.57;;;7.00;;
781;SDS011;374;52.568;13.402;2022-10-24T03:02:44;7.00;;;6.40;;
781;SDS011;374;52.568;13.402;2022-10-24T03:05:10;11.33;;;7.07;;
781;SDS011;374;52.568;13.402;2022-10-24T03:07:35;7.80;;;6.90;;
781;SDS011;374;52.568;13.402;2022-10-24T03:10:01;7.47;;;6.77;;
781;SDS011;374;52.568;13.402;2022-10-24T03:12:26;8.47;;;6.90;;
781;SDS011;374;52.568;13.402;2022-10-24T03:14:52;10.47;;;6.60;;
781;SDS011;374;52.568;13.402;2022-10-24T03:17:18;7.60;;;6.90;;
781;SDS011;374;52.568;13.402;2022-10-24T03:19:43;7.70;;;6.50;;
781;SDS011;374;52.568;13.402;2022-10-24T03:22:09;11.87;;;7.60;;
781;SDS011;374;52.568;13.402;2022-10-24T03:24:35;9.20;;;7.37;;
781;SDS011;374;52.568;13.402;2022-10-24T03:27:00;7.20;;;6.00;;
781;SDS011;374;52.568;13.402;2022-10-24T03:29:26;9.57;;;6.30;;
781;SDS011;374;52.568;13.402;2022-10-24T03:31:52;7.97;;;6.23;;
781;SDS011;374;52.568;13.402;2022-10-24T03:34:17;7.10;;;6.00;;
781;SDS011;374;52.568;13.402;2022-10-24T03:36:43;7.67;;;6.80;;
781;SDS011;374;52.568;13.402;2022-10-24T03:39:08;10.97;;;6.40;;
781;SDS011;374;52.568;13.402;2022-10-24T03:41:34;8.43;;;6.40;;
781;SDS011;374;52.568;13.402;2022-10-24T03:43:59;7.40;;;6.70;;
781;SDS011;374;52.568;13.402;2022-10-24T03:46:25;7.03;;;6.10;;
781;SDS011;374;52.568;13.402;2022-10-24T03:48:51;7.57;;;6.50;;
781;SDS011;374;52.568;13.402;2022-10-24T03:51:16;6.90;;;6.20;;
781;SDS011;374;52.568;13.402;2022-10-24T03:53:42;6.60;;;5.57;;
781;SDS011;374;52.568;13.402;2022-10-24T03:56:07;6.57;;;5.97;;
781;SDS011;374;52.568;13.402;2022-10-24T03:58:33;6.90;;;6.20;;
781;SDS011;374;52.568;13.402;2022-10-24T04:00:58;6.77;;;6.07;;
781;SDS011;374;52.568;13.402;2022-10-24T04:03:25;8.80;;;5.87;;
781;SDS011;374;52.568;13.402;2022-10-24T04:05:51;6.53;;;5.53;;
781;SDS011;374;52.568;13.402;2022-10-24T04:08:17;7.17;;;6.33;;
781;SDS011;374;52.568;13.402;2022-10-24T04:10:42;6.03;;;5.43;;
781;SDS011;374;52.568;13.402;2022-10-24T04:13:09;7.30;;;6.03;;
781;SDS011;374;52.568;13.402;2022-10-24T04:15:34;5.60;;;5.10;;
781;SDS011;374;52.568;13.402;2022-10-24T04:18:00;7.50;;;5.70;;
781;SDS011;374;52.568;13.402;2022-10-24T04:20:27;6.30;;;5.80;;
781;SDS011;374;52.568;13.402;2022-10-24T04:22:52;6.30;;;5.70;;
781;SDS011;374;52.568;13.402;2022-10-24T04:25:18;6.17;;;5.57;;
781;SDS011;374;52.568;13.402;2022-10-24T04:27:44;5.77;;;5.23;;
781;SDS011;374;52.568;13.402;2022-10-24T04:30:11;6.43;;;5.77;;
781;SDS011;374;52.568;13.402;2022-10-24T04:32:37;8.03;;;6.00;;
781;SDS011;374;52.568;13.402;2022-10-24T04:35:03;6.00;;;5.40;;
781;SDS011;374;52.568;13.402;2022-10-24T04:37:29;9.40;;;5.90;;
781;SDS011;374;52.568;13.402;2022-10-24T04:39:57;7.90;;;5.57;;
781;SDS011;374;52.568;13.402;2022-10-24T04:42:23;6.03;;;5.43;;
781;SDS011;374;52.568;13.402;2022-10-24T04:44:49;8.37;;;5.70;;
781;SDS011;374;52.568;13.402;2022-10-24T04:47:15;6.43;;;5.83;;
781;SDS011;374;52.568;13.402;2022-10-24T04:49:40;6.90;;;6.30;;
781;SDS011;374;52.568;13.402;2022-10-24T04:52:06;6.73;;;5.77;;
781;SDS011;374;52.568;13.402;2022-10-24T04:54:31;7.70;;;5.40;;
781;SDS011;374;52.568;13.402;2022-10-24T04:56:57;10.77;;;5.53;;
781;SDS011;374;52.568;13.402;2022-10-24T04:59:22;6.07;;;5.40;;
781;SDS011;374;52.568;13.402;2022-10-24T05:01:48;5.23;;;4.83;;
781;SDS011;374;52.568;13.402;2022-10-24T05:04:14;9.73;;;6.20;;
781;SDS011;374;52.568;13.402;2022-10-24T05:06:39;5.27;;;4.77;;
781;SDS011;374;52.568;13.402;2022-10-24T05:09:05;5.40;;;4.80;;
781;SDS011;374;52.568;13.402;2022-10-24T05:11:30;8.93;;;5.30;;
781;SDS011;374;52.568;13.402;2022-10-24T05:13:56;6.87;;;5.60;;
781;SDS011;374;52.568;13.402;2022-10-24T05:16:22;6.97;;;6.27;;
781;SDS011;374;52.568;13.402;2022-10-24T05:18:48;6.90;;;6.07;;
781;SDS011;374;52.568;13.402;2022-10-24T05:21:13;7.97;;;5.93;;
781;SDS011;374;52.568;13.402;2022-10-24T05:23:39;6.03;;;5.27;;
781;SDS011;374;52.568;13.402;2022-10-24T05:26:05;7.40;;;5.33;;
781;SDS011;374;52.568;13.402;2022-10-24T05:28:31;6.00;;;5.40;;
781;SDS011;374;52.568;13.402;2022-10-24T05:30:56;6.33;;;5.40;;
781;SDS011;374;52.568;13.402;2022-10-24T05:33:22;5.90;;;5.30;;
781;SDS011;374;52.568;13.402;2022-10-24T05:35:48;5.70;;;5.17;;
781;SDS011;374;52.568;13.402;2022-10-24T05:38:14;8.70;;;7.83;;
781;SDS011;374;52.568;13.402;2022-10-24T05:40:40;7.60;;;6.10;;
781;SDS011;374;52.568;13.402;2022-10-24T05:43:05;8.57;;;7.00;;
781;SDS011;374;52.568;13.402;2022-10-24T05:45:31;6.33;;;5.70;;
781;SDS011;374;52.568;13.402;2022-10-24T05:47:58;9.40;;;6.83;;
781;SDS011;374;52.568;13.402;2022-10-24T05:50:24;6.00;;;5.50;;
781;SDS011;374;52.568;13.402;2022-10-24T05:52:51;7.17;;;5.80;;
781;SDS011;374;52.568;13.402;2022-10-24T05:55:16;6.43;;;5.30;;
781;SDS011;374;52.568;13.402;2022-10-24T05:57:42;7.10;;;5.70;;
781;SDS011;374;52.568;13.402;2022-10-24T06:00:10;8.13;;;5.77;;
781;SDS011;374;52.568;13.402;2022-10-24T06:02:37;6.50;;;5.67;;
781;SDS011;374;52.568;13.402;2022-10-24T06:05:03;7.13;;;5.77;;
781;SDS011;374;52.568;13.402;2022-10-24T06:07:29;7.60;;;5.73;;
781;SDS011;374;52.568;13.402;2022-10-24T06:09:55;9.03;;;6.17;;
781;SDS011;374;52.568;13.402;2022-10-24T06:12:21;7.97;;;6.83;;
781;SDS011;374;52.568;13.402;2022-10-24T06:14:47;7.10;;;6.10;;
781;SDS011;374;52.568;13.402;2022-10-24T06:17:12;7.00;;;6.07;;
781;SDS011;374;52.568;13.402;2022-10-24T06:19:38;7.20;;;6.60;;
781;SDS011;374;52.568;13.402;2022-10-24T06:22:04;6.90;;;6.20;;
781;SDS011;374;52.568;13.402;2022-10-24T06:24:32;7.13;;;6.43;;
781;SDS011;374;52.568;13.402;2022-10-24T06:26:59;18.40;;;10.80;;
781;SDS011;374;52.568;13.402;2022-10-24T06:29:24;8.60;;;7.57;;
781;SDS011;374;52.568;13.402;2022-10-24T06:31:49;7.53;;;6.30;;
781;SDS011;374;52.568;13.402;2022-10-24T06:34:15;8.27;;;5.63;;
781;SDS011;374;52.568;13.402;2022-10-24T06:36:40;7.90;;;5.90;;
781;SDS011;374;52.568;13.402;2022-10-24T06:39:06;6.73;;;6.03;;
781;SDS011;374;52.568;13.402;2022-10-24T06:41:31;9.20;;;7.13;;
781;SDS011;374;52.568;13.402;2022-10-24T06:43:57;8.03;;;7.27;;
781;SDS011;374;52.568;13.402;2022-10-24T06:46:23;10.20;;;7.60;;
781;SDS011;374;52.568;13.402;2022-10-24T06:48:52;12.00;;;8.73;;
781;SDS011;374;52.568;13.402;2022-10-24T06:51:19;7.13;;;6.43;;
781;SDS011;374;52.568;13.402;2022-10-24T06:53:44;10.13;;;8.23;;
781;SDS011;374;52.568;13.402;2022-10-24T06:56:10;9.63;;;6.63;;
781;SDS011;374;52.568;13.402;2022-10-24T06:58:36;9.90;;;6.40;;
781;SDS011;374;52.568;13.402;2022-10-24T07:01:06;8.27;;;6.50;;
781;SDS011;374;52.568;13.402;2022-10-24T07:03:33;9.27;;;7.33;;
781;SDS011;374;52.568;13.402;2022-10-24T07:06:03;11.07;;;6.53;;
781;SDS011;374;52.568;13.402;2022-10-24T07:08:33;7.60;;;6.30;;
781;SDS011;374;52.568;13.402;2022-10-24T07:10:58;6.67;;;6.07;;
781;SDS011;374;52.568;13.402;2022-10-24T07:13:24;10.90;;;6.50;;
781;SDS011;374;52.568;13.402;2022-10-24T07:15:49;9.27;;;5.70;;
781;SDS011;374;52.568;13.402;2022-10-24T07:18:18;6.93;;;5.83;;
781;SDS011;374;52.568;13.402;2022-10-24T07:20:44;12.00;;;6.30;;
781;SDS011;374;52.568;13.402;2022-10-24T07:23:09;6.57;;;5.90;;
781;SDS011;374;52.568;13.402;2022-10-24T07:25:36;8.13;;;6.37;;
781;SDS011;374;52.568;13.402;2022-10-24T07:28:02;9.97;;;6.93;;
781;SDS011;374;52.568;13.402;2022-10-24T07:30:27;8.80;;;7.30;;
781;SDS011;374;52.568;13.402;2022-10-24T07:32:53;8.27;;;7.10;;
781;SDS011;374;52.568;13.402;2022-10-24T07:35:19;9.40;;;6.47;;
781;SDS011;374;52.568;13.402;2022-10-24T07:37:45;11.63;;;6.57;;
781;SDS011;374;52.568;13.402;2022-10-24T07:40:11;8.90;;;6.60;;
781;SDS011;374;52.568;13.402;2022-10-24T07:42:36;6.93;;;5.40;;
781;SDS011;374;52.568;13.402;2022-10-24T07:45:02;6.20;;;5.60;;
781;SDS011;374;52.568;13.402;2022-10-24T07:47:29;10.67;;;5.17;;
781;SDS011;374;52.568;13.402;2022-10-24T07:49:54;14.37;;;6.13;;
781;SDS011;374;52.568;13.402;2022-10-24T07:52:20;9.57;;;5.30;;
781;SDS011;374;52.568;13.402;2022-10-24T07:54:46;6.83;;;4.97;;
781;SDS011;374;52.568;13.402;2022-10-24T07:57:11;6.47;;;5.50;;
781;SDS011;374;52.568;13.402;2022-10-24T07:59:37;6.43;;;5.57;;
781;SDS011;374;52.568;13.402;2022-10-24T08:02:02;8.43;;;5.00;;
781;SDS011;374;52.568;13.402;2022-10-24T08:04:28;6.37;;;5.30;;
781;SDS011;374;52.568;13.402;2022-10-24T08:06:54;9.77;;;5.17;;
781;SDS011;374;52.568;13.402;2022-10-24T08:09:20;10.80;;;5.60;;
781;SDS011;374;52.568;13.402;2022-10-24T08:11:46;6.57;;;5.30;;
781;SDS011;374;52.568;13.402;2022-10-24T08:14:11;9.60;;;5.33;;
781;SDS011;374;52.568;13.402;2022-10-24T08:16:37;7.63;;;5.37;;
781;SDS011;374;52.568;13.402;2022-10-24T08:19:05;8.10;;;4.77;;
781;SDS011;374;52.568;13.402;2022-10-24T08:21:31;9.50;;;5.30;;
781;SDS011;374;52.568;13.402;2022-10-24T08:23:57;8.90;;;5.27;;
781;SDS011;374;52.568;13.402;2022-10-24T08:26:23;8.50;;;5.27;;
781;SDS011;374;52.568;13.402;2022-10-24T08:28:49;7.30;;;4.93;;
781;SDS011;374;52.568;13.402;2022-10-24T08:31:16;6.87;;;6.10;;
781;SDS011;374;52.568;13.402;2022-10-24T08:33:44;9.00;;;5.20;;
781;SDS011;374;52.568;13.402;2022-10-24T08:36:12;5.20;;;4.80;;
781;SDS011;374;52.568;13.402;2022-10-24T08:38:46;7.70;;;5.07;;
781;SDS011;374;52.568;13.402;2022-10-24T08:41:24;7.63;;;4.40;;
781;SDS011;374;52.568;13.402;2022-10-24T08:44:03;5.47;;;4.70;;
781;SDS011;374;52.568;13.402;2022-10-24T08:46:43;6.53;;;3.87;;
781;SDS011;374;52.568;13.402;2022-10-24T08:49:18;6.60;;;4.67;;
781;SDS011;374;52.568;13.402;2022-10-24T08:51:54;7.50;;;4.80;;
781;SDS011;374;52.568;13.402;2022-10-24T08:54:28;5.47;;;4.33;;
781;SDS011;374;52.568;13.402;2022-10-24T08:57:00;13.17;;;5.70;;
781;SDS011;374;52.568;13.402;2022-10-24T08:59:27;11.67;;;5.00;;
781;SDS011;374;52.568;13.402;2022-10-24T09:01:59;9.60;;;5.27;;
781;SDS011;374;52.568;13.402;2022-10-24T09:04:32;4.60;;;4.17;;
781;SDS011;374;52.568;13.402;2022-10-24T09:07:02;6.07;;;4.50;;
781;SDS011;374;52.568;13.402;2022-10-24T09:09:29;10.33;;;4.47;;
781;SDS011;374;52.568;13.402;2022-10-24T09:12:01;8.23;;;3.70;;
781;SDS011;374;52.568;13.402;2022-10-24T09:14:32;8.10;;;3.70;;
781;SDS011;374;52.568;13.402;2022-10-24T09:17:17;6.40;;;4.10;;
781;SDS011;374;52.568;13.402;2022-10-24T09:19:53;8.17;;;5.33;;
781;SDS011;374;52.568;13.402;2022-10-24T09:22:21;10.10;;;5.00;;
781;SDS011;374;52.568;13.402;2022-10-24T09:24:50;4.30;;;3.90;;
781;SDS011;374;52.568;13.402;2022-10-24T09:27:24;7.07;;;4.97;;
781;SDS011;374;52.568;13.402;2022-10-24T09:29:53;9.47;;;3.97;;
781;SDS011;374;52.568;13.402;2022-10-24T09:32:25;6.27;;;4.13;;
781;SDS011;374;52.568;13.402;2022-10-24T09:34:54;7.40;;;3.90;;
781;SDS011;374;52.568;13.402;2022-10-24T09:37:48;5.13;;;4.27;;
781;SDS011;374;52.568;13.402;2022-10-24T09:42:49;12.03;;;4.83;;
781;SDS011;374;52.568;13.402;2022-10-24T09:46:19;5.93;;;3.73;;
781;SDS011;374;52.568;13.402;2022-10-24T09:48:37;10.33;;;4.23;;
781;SDS011;374;52.568;13.402;2022-10-24T09:51:06;11.73;;;4.73;;
781;SDS011;374;52.568;13.402;2022-10-24T09:54:02;8.23;;;3.50;;
781;SDS011;374;52.568;13.402;2022-10-24T09:57:15;4.10;;;3.70;;
781;SDS011;374;52.568;13.402;2022-10-24T10:03:39;4.17;;;3.37;;
781;SDS011;374;52.568;13.402;2022-10-24T10:10:28;8.83;;;6.23;;
781;SDS011;374;52.568;13.402;2022-10-24T10:13:19;8.57;;;3.60;;
781;SDS011;374;52.568;13.402;2022-10-24T10:15:58;6.30;;;4.10;;
781;SDS011;374;52.568;13.402;2022-10-24T10:21:11;5.17;;;4.50;;
781;SDS011;374;52.568;13.402;2022-10-24T10:23:52;7.40;;;4.27;;
781;SDS011;374;52.568;13.402;2022-10-24T10:26:28;6.03;;;3.70;;
781;SDS011;374;52.568;13.402;2022-10-24T10:34:52;6.13;;;3.40;;
781;SDS011;374;52.568;13.402;2022-10-24T10:37:28;6.87;;;3.73;;
781;SDS011;374;52.568;13.402;2022-10-24T10:40:12;7.30;;;3.90;;
781;SDS011;374;52.568;13.402;2022-10-24T10:54:12;3.63;;;3.10;;
781;SDS011;374;52.568;13.402;2022-10-24T10:56:59;6.90;;;3.90;;
781;SDS011;374;52.568;13.402;2022-10-24T10:59:47;5.77;;;2.83;;
781;SDS011;374;52.568;13.402;2022-10-24T11:02:30;7.83;;;3.70;;
781;SDS011;374;52.568;13.402;2022-10-24T11:11:05;5.53;;;3.03;;
781;SDS011;374;52.568;13.402;2022-10-24T11:13:48;7.10;;;3.10;;
781;SDS011;374;52.568;13.402;2022-10-24T11:16:26;8.90;;;3.40;;
781;SDS011;374;52.568;13.402;2022-10-24T11:19:00;6.60;;;3.70;;
781;SDS011;374;52.568;13.402;2022-10-24T11:21:44;9.10;;;4.00;;
781;SDS011;374;52.568;13.402;2022-10-24T11:24:12;8.43;;;3.50;;
781;SDS011;374;52.568;13.402;2022-10-24T11:26:44;5.07;;;3.40;;
781;SDS011;374;52.568;13.402;2022-10-24T11:29:28;7.50;;;3.00;;
781;SDS011;374;52.568;13.402;2022-10-24T11:32:04;6.93;;;2.60;;
781;SDS011;374;52.568;13.402;2022-10-24T11:37:49;7.00;;;3.57;;
781;SDS011;374;52.568;13.402;2022-10-24T11:40:18;3.97;;;3.23;;
781;SDS011;374;52.568;13.402;2022-10-24T11:43:08;7.70;;;2.80;;
781;SDS011;374;52.568;13.402;2022-10-24T11:48:55;4.97;;;3.03;;
781;SDS011;374;52.568;13.402;2022-10-24T11:51:28;5.17;;;3.80;;
781;SDS011;374;52.568;13.402;2022-10-24T11:54:03;9.33;;;4.10;;
781;SDS011;374;52.568;13.402;2022-10-24T11:56:36;6.73;;;4.50;;
781;SDS011;374;52.568;13.402;2022-10-24T11:59:22;6.57;;;3.47;;
781;SDS011;374;52.568;13.402;2022-10-24T12:06:55;7.60;;;3.70;;
781;SDS011;374;52.568;13.402;2022-10-24T12:09:47;5.20;;;3.37;;
781;SDS011;374;52.568;13.402;2022-10-24T12:15:38;5.37;;;3.00;;
781;SDS011;374;52.568;13.402;2022-10-24T12:18:28;4.27;;;3.20;;
781;SDS011;374;52.568;13.402;2022-10-24T12:21:27;6.83;;;3.53;;
781;SDS011;374;52.568;13.402;2022-10-24T12:24:34;6.30;;;3.07;;
781;SDS011;374;52.568;13.402;2022-10-24T12:30:17;4.60;;;3.13;;
781;SDS011;374;52.568;13.402;2022-10-24T12:36:09;8.13;;;2.90;;
781;SDS011;374;52.568;13.402;2022-10-24T12:49:17;7.43;;;3.03;;
781;SDS011;374;52.568;13.402;2022-10-24T12:51:51;6.10;;;2.97;;
781;SDS011;374;52.568;13.402;2022-10-24T13:03:33;6.40;;;2.20;;
781;SDS011;374;52.568;13.402;2022-10-24T13:21:39;6.00;;;2.67;;
781;SDS011;374;52.568;13.402;2022-10-24T13:49:36;2.93;;;2.63;;
781;SDS011;374;52.568;13.402;2022-10-24T15:17:26;7.80;;;3.20;;
781;SDS011;374;52.568;13.402;2022-10-24T15:19:56;6.37;;;3.77;;
781;SDS011;374;52.568;13.402;2022-10-24T15:22:27;4.53;;;3.07;;
781;SDS011;374;52.568;13.402;2022-10-24T15:25:03;8.03;;;3.70;;
781;SDS011;374;52.568;13.402;2022-10-24T15:30:09;4.53;;;3.30;;
781;SDS011;374;52.568;13.402;2022-10-24T15:32:44;6.27;;;3.23;;
781;SDS011;374;52.568;13.402;2022-10-24T15:35:11;5.80;;;3.27;;
781;SDS011;374;52.568;13.402;2022-10-24T15:37:37;4.20;;;3.17;;
781;SDS011;374;52.568;13.402;2022-10-24T15:40:04;6.73;;;4.07;;
781;SDS011;374;52.568;13.402;2022-10-24T15:42:41;6.33;;;4.10;;
781;SDS011;374;52.568;13.402;2022-10-24T15:45:13;10.17;;;3.47;;
781;SDS011;374;52.568;13.402;2022-10-24T15:47:40;4.30;;;3.30;;
781;SDS011;374;52.568;13.402;2022-10-24T15:50:06;5.27;;;3.40;;
781;SDS011;374;52.568;13.402;2022-10-24T15:52:33;5.10;;;3.13;;
781;SDS011;374;52.568;13.402;2022-10-24T15:54:59;4.63;;;3.47;;
781;SDS011;374;52.568;13.402;2022-10-24T15:57:24;5.50;;;3.37;;
781;SDS011;374;52.568;13.402;2022-10-24T15:59:50;5.00;;;3.97;;
781;SDS011;374;52.568;13.402;2022-10-24T16:02:19;3.43;;;3.13;;
781;SDS011;374;52.568;13.402;2022-10-24T16:04:47;4.70;;;3.63;;
781;SDS011;374;52.568;13.402;2022-10-24T16:07:13;7.10;;;3.30;;
781;SDS011;374;52.568;13.402;2022-10-24T16:09:39;4.77;;;3.53;;
781;SDS011;374;52.568;13.402;2022-10-24T16:12:04;6.03;;;3.50;;
781;SDS011;374;52.568;13.402;2022-10-24T16:14:30;4.30;;;3.90;;
781;SDS011;374;52.568;13.402;2022-10-24T16:16:55;6.80;;;3.20;;
781;SDS011;374;52.568;13.402;2022-10-24T16:19:22;7.80;;;3.20;;
781;SDS011;374;52.568;13.402;2022-10-24T16:21:50;3.37;;;2.47;;
781;SDS011;374;52.568;13.402;2022-10-24T16:24:16;5.03;;;3.50;;
781;SDS011;374;52.568;13.402;2022-10-24T16:26:42;6.03;;;2.80;;
781;SDS011;374;52.568;13.402;2022-10-24T16:29:08;5.73;;;3.33;;
781;SDS011;374;52.568;13.402;2022-10-24T16:31:34;6.70;;;4.20;;
781;SDS011;374;52.568;13.402;2022-10-24T16:33:59;5.67;;;3.20;;
781;SDS011;374;52.568;13.402;2022-10-24T16:36:25;5.43;;;3.30;;
781;SDS011;374;52.568;13.402;2022-10-24T16:38:51;6.03;;;3.40;;
781;SDS011;374;52.568;13.402;2022-10-24T16:41:19;5.70;;;3.33;;
781;SDS011;374;52.568;13.402;2022-10-24T16:43:47;7.23;;;3.50;;
781;SDS011;374;52.568;13.402;2022-10-24T16:46:14;6.57;;;3.73;;
781;SDS011;374;52.568;13.402;2022-10-24T16:48:42;8.10;;;4.10;;
781;SDS011;374;52.568;13.402;2022-10-24T16:51:15;6.93;;;3.43;;
781;SDS011;374;52.568;13.402;2022-10-24T16:53:43;6.30;;;3.67;;
781;SDS011;374;52.568;13.402;2022-10-24T16:56:11;3.27;;;2.93;;
781;SDS011;374;52.568;13.402;2022-10-24T16:58:38;7.90;;;4.07;;
781;SDS011;374;52.568;13.402;2022-10-24T17:01:11;5.90;;;3.13;;
781;SDS011;374;52.568;13.402;2022-10-24T17:03:38;5.30;;;3.90;;
781;SDS011;374;52.568;13.402;2022-10-24T17:06:04;4.73;;;3.13;;
781;SDS011;374;52.568;13.402;2022-10-24T17:08:30;7.57;;;4.17;;
781;SDS011;374;52.568;13.402;2022-10-24T17:10:56;7.77;;;3.33;;
781;SDS011;374;52.568;13.402;2022-10-24T17:13:22;4.13;;;3.57;;
781;SDS011;374;52.568;13.402;2022-10-24T17:15:48;4.47;;;3.60;;
781;SDS011;374;52.568;13.402;2022-10-24T17:18:13;3.20;;;2.90;;
781;SDS011;374;52.568;13.402;2022-10-24T17:20:42;4.30;;;3.20;;
781;SDS011;374;52.568;13.402;2022-10-24T17:23:13;4.37;;;3.70;;
781;SDS011;374;52.568;13.402;2022-10-24T17:25:41;3.93;;;3.00;;
781;SDS011;374;52.568;13.402;2022-10-24T17:28:07;6.43;;;2.90;;
781;SDS011;374;52.568;13.402;2022-10-24T17:30:35;7.33;;;3.80;;
781;SDS011;374;52.568;13.402;2022-10-24T17:33:01;2.90;;;2.70;;
781;SDS011;374;52.568;13.402;2022-10-24T17:35:26;6.40;;;3.43;;
781;SDS011;374;52.568;13.402;2022-10-24T17:38:06;5.10;;;3.20;;
781;SDS011;374;52.568;13.402;2022-10-24T17:40:46;4.27;;;3.30;;
781;SDS011;374;52.568;13.402;2022-10-24T17:43:23;5.57;;;3.40;;
781;SDS011;374;52.568;13.402;2022-10-24T17:45:51;3.40;;;3.03;;
781;SDS011;374;52.568;13.402;2022-10-24T17:48:18;4.70;;;3.33;;
781;SDS011;374;52.568;13.402;2022-10-24T17:50:45;6.33;;;3.17;;
781;SDS011;374;52.568;13.402;2022-10-24T17:53:15;6.60;;;3.73;;
781;SDS011;374;52.568;13.402;2022-10-24T17:55:42;7.00;;;5.20;;
781;SDS011;374;52.568;13.402;2022-10-24T17:58:08;3.50;;;3.20;;
781;SDS011;374;52.568;13.402;2022-10-24T18:00:33;3.53;;;2.93;;
781;SDS011;374;52.568;13.402;2022-10-24T18:02:59;4.50;;;3.60;;
781;SDS011;374;52.568;13.402;2022-10-24T18:05:28;4.63;;;4.23;;
781;SDS011;374;52.568;13.402;2022-10-24T18:07:54;4.07;;;3.47;;
781;SDS011;374;52.568;13.402;2022-10-24T18:10:21;3.67;;;3.33;;
781;SDS011;374;52.568;13.402;2022-10-24T18:12:52;5.10;;;3.00;;
781;SDS011;374;52.568;13.402;2022-10-24T18:15:17;3.67;;;3.07;;
781;SDS011;374;52.568;13.402;2022-10-24T18:17:44;3.67;;;3.17;;
781;SDS011;374;52.568;13.402;2022-10-24T18:20:10;2.80;;;2.60;;
781;SDS011;374;52.568;13.402;2022-10-24T18:22:37;5.90;;;2.77;;
781;SDS011;374;52.568;13.402;2022-10-24T18:25:06;4.77;;;3.60;;
781;SDS011;374;52.568;13.402;2022-10-24T18:27:34;3.87;;;3.47;;
781;SDS011;374;52.568;13.402;2022-10-24T18:30:04;3.10;;;2.80;;
781;SDS011;374;52.568;13.402;2022-10-24T18:32:30;5.03;;;3.20;;
781;SDS011;374;52.568;13.402;2022-10-24T18:34:58;4.80;;;3.13;;
781;SDS011;374;52.568;13.402;2022-10-24T18:37:24;5.83;;;2.93;;
781;SDS011;374;52.568;13.402;2022-10-24T18:39:51;3.90;;;2.90;;
781;SDS011;374;52.568;13.402;2022-10-24T18:42:36;3.30;;;3.00;;
781;SDS011;374;52.568;13.402;2022-10-24T18:45:18;4.93;;;3.17;;
781;SDS011;374;52.568;13.402;2022-10-24T18:47:51;4.77;;;3.47;;
781;SDS011;374;52.568;13.402;2022-10-24T18:50:18;3.23;;;2.93;;
781;SDS011;374;52.568;13.402;2022-10-24T18:52:49;2.67;;;2.47;;
781;SDS011;374;52.568;13.402;2022-10-24T18:55:19;4.40;;;3.27;;
781;SDS011;374;52.568;13.402;2022-10-24T18:57:47;4.73;;;3.30;;
781;SDS011;374;52.568;13.402;2022-10-24T19:00:23;3.03;;;2.70;;
781;SDS011;374;52.568;13.402;2022-10-24T19:02:55;3.90;;;2.70;;
781;SDS011;374;52.568;13.402;2022-10-24T19:05:43;4.67;;;3.30;;
781;SDS011;374;52.568;13.402;2022-10-24T19:08:19;7.00;;;3.07;;
781;SDS011;374;52.568;13.402;2022-10-24T19:10:47;4.53;;;2.93;;
781;SDS011;374;52.568;13.402;2022-10-24T19:13:16;4.63;;;3.60;;
781;SDS011;374;52.568;13.402;2022-10-24T19:15:44;5.30;;;3.30;;
781;SDS011;374;52.568;13.402;2022-10-24T19:18:15;3.43;;;2.93;;
781;SDS011;374;52.568;13.402;2022-10-24T19:20:41;5.10;;;2.90;;
781;SDS011;374;52.568;13.402;2022-10-24T19:23:11;4.17;;;3.30;;
781;SDS011;374;52.568;13.402;2022-10-24T19:25:38;5.53;;;2.90;;
781;SDS011;374;52.568;13.402;2022-10-24T19:28:04;3.57;;;3.23;;
781;SDS011;374;52.568;13.402;2022-10-24T19:30:30;4.37;;;3.10;;